Airfield :
LOGIN :

Register | Disclaimer

   EN    FR    IT 

 










Legend :    VFR   Marginal VFR   IFR   Intensive IFR   Very Intensive IFR
Visi :
Ceiling :
>= 8 km
>= 3000ft
5 to 8 km
1000 to 3000 ft
1500m to 5 km
500 to 1000 ft
800 to 1500m
200 to 500 ft
< 800m
< 200 ft
Symbols :   Thunderstorms  Fog  Heavy snow  Heavy precipitations  Wind > 20 kt
SIGMETs :     Misc.  Thunderstorms  Icing  Turbulence  Mountain Waves  Volcanic Ashes






- Airport Elevation : 157 ft
- IATA code : LIL


LFQQ - Lille Lesquin

CURRENT METAR :
  • 081530Z AUTO 13003KT 070V170 9999 FEW045 09/M02 Q1022 NOSIG

EXPIRED METARs :
  • 081500Z AUTO 08005KT 050V110 9999 FEW045 09/M02 Q1022 NOSIG
  • 081430Z AUTO 07004KT 360V120 CAVOK 09/M02 Q1022 NOSIG
  • 081400Z AUTO 08005KT 060V130 CAVOK 08/M03 Q1022 NOSIG
  • 081330Z AUTO VRB05KT CAVOK 08/M03 Q1023 NOSIG

TAF TAF LFQQ
Valid from the 08 at 12:00 until the 09 at 18:00 UTC


081100Z 0812/0918 VRB02KT CAVOK
TEMPO 0823/0905 4000 RA
BECMG 0906/0908 30010KT
TEMPO 0908/0912 BKN010
PROB30
TEMPO 0912/0918 4000 SHRA
ATIS : +33 3 20 16 19 54



MET'MAP, your aeronautical weather chart ! - Copyright ORBIFLY December 2007 - Disclaimer

ORBIFLY MET'MAP TEAM :

Programming & Development : Alexandra Zaïnal
Concept & original design : Baudouin d'Aumeries
Assistance for programming : Marc-Olivier Méhu
Technical & hardware support : Manuel Goepfert

Contact : metmap@orbifly.com




SOURCES & CREDITS :

   NOAA